createdAt,value
2018-09-01T00:02:08.603Z,14.97
2018-09-01T00:04:36.868Z,14.47
2018-09-01T00:07:05.100Z,12.30
2018-09-01T00:09:35.332Z,10.20
2018-09-01T00:12:04.015Z,12.90
2018-09-01T00:14:32.264Z,13.20
2018-09-01T00:17:01.162Z,11.13
2018-09-01T00:19:29.424Z,10.37
2018-09-01T00:21:57.675Z,12.83
2018-09-01T00:24:25.939Z,14.07
2018-09-01T00:26:54.167Z,13.73
2018-09-01T00:29:22.395Z,11.57
2018-09-01T00:31:50.655Z,11.97
2018-09-01T00:34:18.893Z,8.73
2018-09-01T00:36:47.116Z,15.13
2018-09-01T00:39:15.380Z,13.87
2018-09-01T00:41:43.591Z,13.27
2018-09-01T00:44:11.824Z,13.63
2018-09-01T00:46:40.127Z,13.73
2018-09-01T00:49:08.346Z,11.97
2018-09-01T00:51:36.603Z,12.43
2018-09-01T00:54:04.872Z,13.10
2018-09-01T00:56:33.191Z,11.33
2018-09-01T00:59:01.427Z,14.40
2018-09-01T01:01:29.683Z,14.87
2018-09-01T01:03:57.923Z,14.37
2018-09-01T01:06:26.132Z,8.50
2018-09-01T01:08:54.356Z,11.40
2018-09-01T01:11:22.572Z,14.03
2018-09-01T01:13:50.806Z,14.13
2018-09-01T01:16:19.974Z,11.67
2018-09-01T01:18:48.179Z,10.10
2018-09-01T01:21:16.479Z,9.80
2018-09-01T01:23:44.720Z,12.77
2018-09-01T01:26:12.932Z,11.33
2018-09-01T01:28:41.212Z,14.87
2018-09-01T01:31:09.516Z,12.00
2018-09-01T01:33:38.911Z,11.37
2018-09-01T01:36:07.206Z,12.67
2018-09-01T01:38:35.440Z,14.23
2018-09-01T01:41:03.676Z,13.70
2018-09-01T01:43:31.903Z,16.87
2018-09-01T01:46:00.144Z,9.70
2018-09-01T01:48:28.383Z,9.47
2018-09-01T01:50:56.639Z,13.17
2018-09-01T01:53:24.880Z,15.07
2018-09-01T01:55:53.103Z,10.20
2018-09-01T01:58:22.264Z,12.43
2018-09-01T02:00:50.539Z,13.87
2018-09-01T02:03:18.768Z,11.97
2018-09-01T02:05:46.979Z,11.80
2018-09-01T02:08:15.260Z,12.80
2018-09-01T02:10:43.515Z,11.63
2018-09-01T02:13:11.823Z,14.57
2018-09-01T02:15:40.096Z,17.07
2018-09-01T02:18:08.323Z,16.93
2018-09-01T02:20:36.544Z,13.13
2018-09-01T02:23:04.827Z,15.20
2018-09-01T02:25:33.016Z,12.60
2018-09-01T02:28:01.234Z,12.50
2018-09-01T02:30:29.484Z,11.70
2018-09-01T02:32:57.707Z,9.90
2018-09-01T02:35:25.923Z,9.83
2018-09-01T02:37:54.191Z,14.28
2018-09-01T02:40:22.446Z,11.07
2018-09-01T02:42:50.660Z,16.20
2018-09-01T02:45:18.897Z,13.70
2018-09-01T02:47:47.144Z,14.33
2018-09-01T02:50:15.361Z,12.83
2018-09-01T02:52:43.607Z,14.20
2018-09-01T02:55:11.952Z,14.40
2018-09-01T02:57:40.189Z,12.60
2018-09-01T03:00:13.989Z,16.77
2018-09-01T03:02:46.011Z,15.40
2018-09-01T03:05:15.744Z,12.27
2018-09-01T03:07:43.995Z,11.43
2018-09-01T03:10:12.248Z,10.90
2018-09-01T03:12:40.508Z,12.97
2018-09-01T03:15:08.763Z,10.60
2018-09-01T03:17:37.004Z,12.43
2018-09-01T03:20:05.503Z,13.93
2018-09-01T03:22:33.744Z,7.80
2018-09-01T03:25:01.976Z,13.37
2018-09-01T03:27:30.220Z,11.03
2018-09-01T03:29:58.431Z,12.87
2018-09-01T03:32:26.677Z,10.10
2018-09-01T03:34:54.971Z,10.13
2018-09-01T03:37:23.168Z,10.87
2018-09-01T03:39:51.400Z,77.00
2018-09-01T03:42:19.645Z,10.63
2018-09-01T03:44:47.908Z,123.70
2018-09-01T03:47:16.159Z,66.60
2018-09-01T03:49:44.472Z,38.23
2018-09-01T03:52:12.883Z,20.57
2018-09-01T03:54:41.133Z,7.43
2018-09-01T03:57:09.420Z,19.77
2018-09-01T03:59:37.619Z,16.47
2018-09-01T04:02:05.856Z,12.07
2018-09-01T04:04:34.083Z,62.93
2018-09-01T04:07:02.328Z,12.63
2018-09-01T04:09:30.559Z,24.57
2018-09-01T04:11:58.825Z,44.90
2018-09-01T04:14:27.093Z,13.27
2018-09-01T04:16:55.321Z,37.03
2018-09-01T04:19:23.600Z,50.00
2018-09-01T04:21:52.336Z,45.43
2018-09-01T04:24:20.567Z,89.97
2018-09-01T04:26:48.827Z,47.80
2018-09-01T04:29:17.771Z,129.63
2018-09-01T04:31:46.536Z,29.33
2018-09-01T04:34:14.812Z,99.97
2018-09-01T04:36:43.266Z,76.57
2018-09-01T04:39:12.820Z,88.37
2018-09-01T04:41:41.667Z,146.60
2018-09-01T04:44:10.048Z,168.10
2018-09-01T04:46:38.433Z,82.87
2018-09-01T04:49:06.707Z,136.43
2018-09-01T04:51:34.912Z,144.00
2018-09-01T04:54:03.143Z,40.73
2018-09-01T04:56:31.404Z,115.73
2018-09-01T04:58:59.747Z,166.50
2018-09-01T05:01:28.060Z,75.50
2018-09-01T05:03:56.212Z,83.80
2018-09-01T05:06:24.524Z,146.18
2018-09-01T05:08:52.760Z,192.83
2018-09-01T05:11:21.007Z,148.57
2018-09-01T05:13:49.248Z,115.23
2018-09-01T05:16:17.871Z,86.50
2018-09-01T05:18:46.135Z,151.63
2018-09-01T05:21:14.412Z,63.73
2018-09-01T05:23:42.672Z,78.67
2018-09-01T05:26:11.161Z,71.93
2018-09-01T05:28:39.412Z,93.63
2018-09-01T05:31:08.040Z,54.50
2018-09-01T05:33:36.281Z,26.40
2018-09-01T05:36:04.496Z,53.03
2018-09-01T05:38:32.719Z,10.10
2018-09-01T05:41:00.945Z,15.43
2018-09-01T05:43:29.164Z,22.70
2018-09-01T05:45:57.380Z,11.80
2018-09-01T05:48:25.641Z,26.80
2018-09-01T05:50:53.898Z,12.83
2018-09-01T05:53:22.161Z,16.70
2018-09-01T05:55:50.384Z,15.80
2018-09-01T05:58:18.588Z,31.93
2018-09-01T06:00:48.223Z,33.00
2018-09-01T06:03:17.160Z,16.90
2018-09-01T06:05:45.827Z,24.60
2018-09-01T06:08:14.056Z,15.13
2018-09-01T06:10:42.316Z,15.43
2018-09-01T06:13:10.536Z,9.93
2018-09-01T06:15:38.890Z,11.93
2018-09-01T06:18:07.485Z,9.23
2018-09-01T06:20:35.710Z,9.28
2018-09-01T06:23:04.215Z,8.50
2018-09-01T06:25:32.479Z,8.53
2018-09-01T06:28:07.291Z,7.70
2018-09-01T06:30:38.468Z,8.60
2018-09-01T06:33:06.725Z,8.60
2018-09-01T06:40:27.323Z,9.48
2018-09-01T06:42:55.602Z,8.65
2018-09-01T06:45:23.980Z,9.05
2018-09-01T06:47:52.188Z,9.20
2018-09-01T06:50:20.461Z,9.43
2018-09-01T06:52:48.712Z,9.08
2018-09-01T06:55:16.936Z,8.75
2018-09-01T06:57:45.188Z,8.15
2018-09-01T07:00:13.485Z,8.98
2018-09-01T07:02:41.723Z,8.45
2018-09-01T07:05:10.028Z,9.00
2018-09-01T07:07:38.303Z,8.88
2018-09-01T07:10:06.560Z,9.88
2018-09-01T07:12:34.849Z,9.63
2018-09-01T07:15:03.075Z,9.73
2018-09-01T07:17:31.316Z,10.95
2018-09-01T07:19:59.552Z,9.60
2018-09-01T07:22:27.815Z,9.50
2018-09-01T07:24:56.248Z,11.18
2018-09-01T07:27:24.487Z,9.68
2018-09-01T07:29:52.699Z,10.08
2018-09-01T07:32:20.955Z,10.43
2018-09-01T07:34:49.275Z,9.88
2018-09-01T07:37:17.521Z,11.88
2018-09-01T07:39:45.771Z,11.48
2018-09-01T07:42:14.051Z,10.75
2018-09-01T07:44:42.329Z,10.18
2018-09-01T07:47:10.860Z,11.55
2018-09-01T07:49:39.146Z,10.80
2018-09-01T07:52:07.479Z,10.35
2018-09-01T07:54:35.753Z,9.10
2018-09-01T07:57:04.484Z,10.00
2018-09-01T07:59:32.711Z,10.13
2018-09-01T08:02:00.953Z,9.78
2018-09-01T08:04:29.274Z,10.00
2018-09-01T08:06:58.172Z,9.05
2018-09-01T08:09:26.432Z,9.60
2018-09-01T08:11:54.676Z,9.40
2018-09-01T08:14:23.011Z,10.10
2018-09-01T08:16:51.129Z,9.75
2018-09-01T08:19:19.444Z,9.40
2018-09-01T08:21:47.685Z,9.68
2018-09-01T08:24:16.456Z,9.18
2018-09-01T08:26:44.708Z,9.28
2018-09-01T08:29:12.967Z,9.23
2018-09-01T08:31:41.214Z,9.25
2018-09-01T08:34:09.481Z,9.03
2018-09-01T08:36:37.743Z,9.75
2018-09-01T08:39:06.927Z,8.37
2018-09-01T08:41:35.161Z,8.93
2018-09-01T08:44:03.417Z,7.72
2018-09-01T08:46:31.675Z,8.15
2018-09-01T08:48:59.886Z,8.58
2018-09-01T08:51:28.115Z,8.78
2018-09-01T08:53:56.344Z,9.25
2018-09-01T08:56:24.610Z,8.35
2018-09-01T08:58:52.852Z,8.38
2018-09-01T09:01:21.062Z,8.30
2018-09-01T09:03:49.317Z,8.63
2018-09-01T09:06:17.575Z,8.98
2018-09-01T09:08:45.867Z,8.15
2018-09-01T09:11:14.096Z,8.20
2018-09-01T09:13:42.388Z,9.40
2018-09-01T09:16:10.795Z,8.60
2018-09-01T09:18:39.154Z,7.42
2018-09-01T09:21:07.422Z,7.55
2018-09-01T09:23:35.728Z,8.23
2018-09-01T09:26:03.972Z,8.03
2018-09-01T09:28:32.272Z,8.05
2018-09-01T09:31:00.532Z,7.33
2018-09-01T09:33:28.777Z,7.62
2018-09-01T09:35:57.043Z,7.03
2018-09-01T09:38:25.299Z,7.40
2018-09-01T09:40:53.528Z,8.48
2018-09-01T09:43:21.772Z,7.55
2018-09-01T09:45:49.998Z,6.65
2018-09-01T09:48:18.260Z,5.92
2018-09-01T09:50:46.504Z,6.05
2018-09-01T09:53:15.370Z,8.25
2018-09-01T09:55:43.628Z,4.90
2018-09-01T09:58:11.923Z,5.50
2018-09-01T10:00:45.654Z,5.80
2018-09-01T10:03:13.951Z,5.70
2018-09-01T10:05:42.302Z,7.15
2018-09-01T10:08:10.593Z,6.30
2018-09-01T10:10:38.997Z,5.15
2018-09-01T10:13:07.266Z,5.08
2018-09-01T10:15:35.830Z,3.83
2018-09-01T10:18:04.202Z,4.00
2018-09-01T10:20:32.545Z,6.83
2018-09-01T10:23:00.725Z,4.87
2018-09-01T10:25:28.999Z,4.47
2018-09-01T10:27:57.240Z,5.05
2018-09-01T10:30:25.472Z,5.12
2018-09-01T10:32:53.693Z,5.83
2018-09-01T10:35:21.932Z,3.40
2018-09-01T10:37:50.171Z,5.15
2018-09-01T10:40:18.432Z,3.33
2018-09-01T10:42:46.667Z,4.80
2018-09-01T10:45:14.905Z,7.58
2018-09-01T10:47:43.165Z,5.77
2018-09-01T10:50:11.540Z,4.17
2018-09-01T10:52:39.770Z,5.78
2018-09-01T10:55:08.040Z,4.10
2018-09-01T10:57:36.260Z,4.00
2018-09-01T11:00:04.872Z,3.47
2018-09-01T11:02:33.137Z,2.70
2018-09-01T11:05:01.414Z,3.10
2018-09-01T11:07:29.604Z,2.98
2018-09-01T11:09:57.857Z,4.37
2018-09-01T11:12:26.891Z,5.47
2018-09-01T11:14:55.124Z,3.08
2018-09-01T11:17:23.389Z,4.00
2018-09-01T11:19:51.803Z,4.00
2018-09-01T11:22:20.069Z,3.00
2018-09-01T11:24:48.308Z,3.65
2018-09-01T11:27:16.570Z,3.25
2018-09-01T11:29:45.494Z,2.73
2018-09-01T11:32:13.707Z,3.67
2018-09-01T11:34:41.955Z,3.98
2018-09-01T11:37:10.182Z,3.02
2018-09-01T11:39:38.427Z,3.22
2018-09-01T11:42:06.840Z,6.17
2018-09-01T11:44:35.072Z,4.15
2018-09-01T11:47:03.515Z,5.17
2018-09-01T11:49:31.745Z,4.17
2018-09-01T11:51:59.978Z,3.85
2018-09-01T11:54:28.268Z,4.50
2018-09-01T11:56:56.748Z,4.00
2018-09-01T11:59:25.065Z,3.70
2018-09-01T12:01:53.326Z,2.98
2018-09-01T12:04:21.649Z,2.65
2018-09-01T12:06:49.943Z,3.20
2018-09-01T12:09:18.412Z,3.55
2018-09-01T12:11:46.703Z,3.20
2018-09-01T12:14:14.921Z,2.90
2018-09-01T12:16:43.158Z,5.17
2018-09-01T12:19:11.351Z,3.00
2018-09-01T12:21:39.589Z,4.00
2018-09-01T12:24:07.832Z,3.75
2018-09-01T12:26:36.073Z,4.47
2018-09-01T12:29:04.302Z,3.72
2018-09-01T12:31:32.535Z,4.55
2018-09-01T12:34:00.750Z,2.75
2018-09-01T12:36:28.996Z,3.83
2018-09-01T12:38:57.284Z,3.33
2018-09-01T12:41:25.594Z,4.58
2018-09-01T12:43:53.846Z,3.15
2018-09-01T12:46:22.285Z,2.70
2018-09-01T12:48:51.115Z,3.27
2018-09-01T12:51:19.377Z,3.77
2018-09-01T12:53:47.755Z,2.40
2018-09-01T12:56:16.948Z,2.85
2018-09-01T12:58:45.172Z,5.85
2018-09-01T13:01:13.416Z,3.22
2018-09-01T13:03:41.659Z,2.05
2018-09-01T13:06:11.200Z,3.85
2018-09-01T13:08:39.479Z,2.65
2018-09-01T13:11:07.754Z,3.90
2018-09-01T13:13:36.116Z,3.42
2018-09-01T13:16:04.385Z,5.72
2018-09-01T13:18:32.608Z,2.25
2018-09-01T13:21:00.859Z,3.65
2018-09-01T13:23:29.105Z,3.35
2018-09-01T13:25:57.684Z,3.90
2018-09-01T13:28:26.000Z,3.33
2018-09-01T13:30:54.300Z,4.15
2018-09-01T13:33:23.258Z,3.02
2018-09-01T13:35:51.570Z,3.00
2018-09-01T13:38:19.850Z,2.98
2018-09-01T13:40:48.249Z,2.85
2018-09-01T13:43:16.480Z,2.83
2018-09-01T13:45:44.716Z,4.20
2018-09-01T13:48:12.971Z,3.47
2018-09-01T13:50:41.210Z,3.72
2018-09-01T13:53:09.442Z,3.02
2018-09-01T13:55:38.627Z,5.47
2018-09-01T13:58:06.868Z,1.92
2018-09-01T14:00:35.844Z,3.27
2018-09-01T14:03:04.369Z,2.80
2018-09-01T14:05:32.623Z,3.35
2018-09-01T14:08:00.859Z,3.22
2018-09-01T14:10:29.120Z,3.43
2018-09-01T14:12:57.364Z,3.65
2018-09-01T14:15:25.634Z,2.52
2018-09-01T14:17:53.941Z,2.83
2018-09-01T14:20:22.236Z,3.92
2018-09-01T14:22:50.475Z,3.08
2018-09-01T14:25:18.691Z,2.90
2018-09-01T14:27:46.975Z,2.80
2018-09-01T14:30:15.232Z,3.40
2018-09-01T14:32:43.493Z,3.35
2018-09-01T14:35:12.166Z,4.97
2018-09-01T14:37:40.755Z,3.50
2018-09-01T14:40:08.985Z,2.72
2018-09-01T14:42:37.236Z,4.40
2018-09-01T14:45:05.843Z,3.80
2018-09-01T14:47:34.161Z,3.02
2018-09-01T14:50:02.372Z,4.47
2018-09-01T14:52:30.613Z,4.67
2018-09-01T14:54:58.837Z,2.92
2018-09-01T14:57:27.088Z,2.90
2018-09-01T14:59:55.315Z,4.75
2018-09-01T15:02:23.568Z,3.03
2018-09-01T15:04:51.800Z,2.40
2018-09-01T15:07:20.207Z,2.57
2018-09-01T15:09:48.428Z,3.10
2018-09-01T15:12:17.359Z,4.35
2018-09-01T15:14:45.624Z,5.47
2018-09-01T15:17:13.855Z,3.10
2018-09-01T15:19:42.098Z,5.95
2018-09-01T15:22:10.348Z,2.83
2018-09-01T15:24:38.593Z,3.15
2018-09-01T15:27:06.863Z,2.92
2018-09-01T15:29:35.112Z,3.40
2018-09-01T15:32:03.449Z,3.45
2018-09-01T15:34:31.841Z,3.30
2018-09-01T15:37:00.102Z,3.52
2018-09-01T15:39:28.502Z,4.17
2018-09-01T15:41:56.797Z,5.90
2018-09-01T15:44:25.048Z,2.80
2018-09-01T15:46:53.328Z,4.15
2018-09-01T15:49:21.576Z,3.05
2018-09-01T15:51:49.844Z,2.85
2018-09-01T15:59:10.604Z,3.83
2018-09-01T16:01:38.835Z,4.12
2018-09-01T16:04:07.122Z,3.85
2018-09-01T16:06:35.344Z,2.42
2018-09-01T16:09:05.051Z,2.87
2018-09-01T16:11:33.319Z,3.70
2018-09-01T16:14:01.604Z,3.67
2018-09-01T16:16:29.851Z,6.60
2018-09-01T16:18:58.516Z,6.53
2018-09-01T16:21:26.812Z,4.45
2018-09-01T16:23:55.079Z,4.30
2018-09-01T16:26:23.328Z,4.78
2018-09-01T16:28:51.604Z,4.08
2018-09-01T16:31:19.821Z,3.25
2018-09-01T16:33:48.099Z,3.45
2018-09-01T16:36:16.390Z,3.08
2018-09-01T16:38:44.647Z,4.45
2018-09-01T16:41:12.868Z,3.98
2018-09-01T16:43:41.108Z,3.87
2018-09-01T16:46:10.388Z,3.35
2018-09-01T16:48:38.704Z,4.03
2018-09-01T16:51:06.961Z,3.67
2018-09-01T16:53:35.281Z,4.50
2018-09-01T16:56:03.544Z,3.30
2018-09-01T16:58:31.820Z,3.72
2018-09-01T17:01:00.252Z,5.10
2018-09-01T17:03:28.506Z,5.05
2018-09-01T17:05:56.768Z,4.03
2018-09-01T17:08:25.000Z,3.27
2018-09-01T17:10:53.808Z,5.05
2018-09-01T17:13:22.056Z,3.92
2018-09-01T17:15:50.322Z,2.33
2018-09-01T17:18:18.622Z,2.98
2018-09-01T17:20:46.950Z,5.17
2018-09-01T17:23:15.271Z,4.45
2018-09-01T17:25:43.551Z,3.62
2018-09-01T17:28:12.363Z,2.85
2018-09-01T17:30:40.639Z,3.00
2018-09-01T17:33:08.933Z,3.95
2018-09-01T17:35:37.156Z,3.67
2018-09-01T17:38:05.411Z,3.10
2018-09-01T17:40:33.626Z,4.97
2018-09-01T17:43:01.865Z,4.55
2018-09-01T17:45:30.109Z,6.42
2018-09-01T17:47:58.351Z,4.00
2018-09-01T17:50:26.633Z,3.35
2018-09-01T17:52:54.936Z,5.62
2018-09-01T17:55:23.204Z,4.15
2018-09-01T17:57:51.518Z,3.87
2018-09-01T18:00:19.747Z,3.45
2018-09-01T18:02:48.593Z,4.60
2018-09-01T18:05:16.847Z,4.83
2018-09-01T18:07:45.128Z,3.58
2018-09-01T18:10:13.426Z,3.83
2018-09-01T18:12:41.831Z,3.33
2018-09-01T18:15:10.121Z,3.65
2018-09-01T18:17:39.151Z,2.98
2018-09-01T18:20:07.429Z,3.37
2018-09-01T18:22:35.709Z,3.87
2018-09-01T18:25:04.086Z,4.12
2018-09-01T18:27:32.912Z,5.75
2018-09-01T18:30:01.198Z,4.87
2018-09-01T18:32:29.535Z,6.20
2018-09-01T18:34:57.793Z,4.33
2018-09-01T18:37:26.864Z,3.52
2018-09-01T18:39:55.156Z,3.90
2018-09-01T18:42:23.505Z,3.87
2018-09-01T18:44:51.856Z,3.55
2018-09-01T18:47:20.167Z,6.92
2018-09-01T18:49:49.116Z,3.10
2018-09-01T18:52:17.783Z,5.22
2018-09-01T18:54:46.382Z,4.75
2018-09-01T18:57:14.633Z,3.37
2018-09-01T18:59:43.772Z,5.72
2018-09-01T19:02:12.021Z,4.25
2018-09-01T19:04:41.590Z,4.85
2018-09-01T19:07:09.997Z,3.75
2018-09-01T19:09:38.863Z,4.10
2018-09-01T19:12:07.186Z,4.35
2018-09-01T19:14:35.628Z,3.40
2018-09-01T19:17:04.297Z,5.62
2018-09-01T19:19:33.170Z,3.75
2018-09-01T19:22:01.636Z,3.47
2018-09-01T19:24:29.929Z,3.95
2018-09-01T19:26:58.293Z,3.33
2018-09-01T19:29:26.775Z,3.33
2018-09-01T19:31:55.944Z,4.62
2018-09-01T19:34:24.629Z,3.40
2018-09-01T19:36:52.921Z,5.40
2018-09-01T19:39:21.212Z,3.30
2018-09-01T19:41:49.494Z,5.45
2018-09-01T19:44:17.797Z,4.60
2018-09-01T19:46:49.601Z,5.33
2018-09-01T19:49:17.897Z,4.62
2018-09-01T19:51:46.217Z,5.10
2018-09-01T19:54:14.543Z,4.65
2018-09-01T19:56:42.859Z,5.03
2018-09-01T19:59:11.225Z,5.95
2018-09-01T20:01:39.558Z,5.78
2018-09-01T20:04:08.173Z,4.37
2018-09-01T20:06:36.494Z,4.67
2018-09-01T20:09:05.761Z,5.03
2018-09-01T20:11:34.223Z,4.65
2018-09-01T20:14:02.608Z,3.83
2018-09-01T20:16:30.901Z,6.40
2018-09-01T20:18:59.497Z,3.93
2018-09-01T20:21:27.786Z,5.62
2018-09-01T20:23:56.836Z,10.40
2018-09-01T20:26:25.187Z,7.13
2018-09-01T20:28:53.474Z,8.93
2018-09-01T20:31:21.805Z,7.63
2018-09-01T20:33:50.073Z,8.53
2018-09-01T20:36:21.597Z,7.13
2018-09-01T20:38:50.328Z,6.03
2018-09-01T20:41:19.259Z,5.20
2018-09-01T20:43:48.539Z,6.53
2018-09-01T20:46:16.996Z,6.57
2018-09-01T20:48:45.265Z,5.90
2018-09-01T20:51:13.592Z,6.13
2018-09-01T20:53:42.844Z,6.23
2018-09-01T20:56:11.124Z,11.50
2018-09-01T20:58:39.797Z,7.37
2018-09-01T21:01:08.386Z,10.00
2018-09-01T21:03:37.017Z,8.77
2018-09-01T21:06:05.330Z,11.40
2018-09-01T21:08:33.661Z,9.97
2018-09-01T21:11:01.949Z,9.57
2018-09-01T21:13:30.252Z,9.63
2018-09-01T21:15:58.556Z,11.07
2018-09-01T21:18:26.804Z,9.73
2018-09-01T21:20:55.097Z,9.20
2018-09-01T21:23:23.372Z,9.53
2018-09-01T21:25:51.637Z,10.30
2018-09-01T21:28:19.939Z,10.00
2018-09-01T21:30:48.219Z,9.90
2018-09-01T21:33:16.503Z,8.07
2018-09-01T21:35:44.803Z,12.13
2018-09-01T21:38:13.060Z,9.80
2018-09-01T21:40:41.318Z,8.83
2018-09-01T21:43:09.587Z,9.17
2018-09-01T21:45:37.857Z,8.00
2018-09-01T21:48:06.128Z,7.83
2018-09-01T21:50:34.404Z,8.07
2018-09-01T21:53:02.685Z,9.77
2018-09-01T21:55:30.965Z,9.33
2018-09-01T21:57:59.460Z,11.57
2018-09-01T22:00:27.718Z,8.70
2018-09-01T22:02:55.972Z,8.23
2018-09-01T22:05:24.270Z,8.13
2018-09-01T22:07:52.508Z,10.30
2018-09-01T22:10:20.740Z,8.93
2018-09-01T22:12:48.985Z,9.53
2018-09-01T22:15:18.247Z,10.03
2018-09-01T22:17:46.494Z,10.70
2018-09-01T22:20:14.748Z,8.80
2018-09-01T22:22:43.132Z,8.67
2018-09-01T22:25:11.363Z,8.97
2018-09-01T22:27:39.620Z,8.33
2018-09-01T22:30:07.884Z,8.37
2018-09-01T22:32:36.168Z,9.37
2018-09-01T22:35:04.448Z,9.77
2018-09-01T22:37:32.774Z,8.50
2018-09-01T22:40:01.359Z,8.40
2018-09-01T22:42:29.605Z,9.27
2018-09-01T22:44:57.872Z,8.53
2018-09-01T22:47:28.332Z,8.40
2018-09-01T22:49:56.587Z,9.40
2018-09-01T22:52:24.824Z,10.07
2018-09-01T22:54:53.075Z,9.83
2018-09-01T22:57:21.319Z,11.73
2018-09-01T22:59:49.855Z,8.80
2018-09-01T23:02:18.083Z,10.57
2018-09-01T23:04:46.347Z,10.87
2018-09-01T23:07:14.548Z,11.83
2018-09-01T23:09:43.220Z,10.98
2018-09-01T23:12:11.468Z,11.53
2018-09-01T23:14:39.708Z,8.87
2018-09-01T23:17:08.217Z,10.37
2018-09-01T23:19:36.737Z,9.03
2018-09-01T23:22:04.971Z,8.90
2018-09-01T23:24:33.250Z,11.63
2018-09-01T23:27:01.501Z,9.70
2018-09-01T23:29:29.751Z,10.10
2018-09-01T23:31:57.987Z,10.67
2018-09-01T23:34:26.252Z,10.00
2018-09-01T23:36:54.548Z,10.73
2018-09-01T23:39:23.003Z,10.50
2018-09-01T23:41:51.252Z,11.00
2018-09-01T23:44:19.474Z,10.00
2018-09-01T23:46:47.752Z,10.37
2018-09-01T23:49:15.976Z,10.90
2018-09-01T23:51:44.246Z,10.83
2018-09-01T23:54:12.471Z,11.10
2018-09-01T23:56:40.681Z,10.17
2018-09-01T23:59:08.942Z,10.37
